<?xml version="1.0" encoding="utf-8"?>
<gpx xmlns:xsi="http://www.w3.org/2001/XMLSchema-instance" xmlns:xsd="http://www.w3.org/2001/XMLSchema" version="1.1" creator="Shapelink.com" xmlns="http://www.topografix.com/GPX/1/1" xmlns:gpxtpx="http://www.garmin.com/xmlschemas/TrackPointExtension/v1">
  <metadata>
    <name>Cykling 12.57 km, 2019-08-19</name>
    <desc></desc>
    <author><name>Henrik Staffas</name></author> 
    <time>2019-08-19T07:37:55Z</time>
  </metadata>
  <trk>
    <name>Cykling 12.57 km, 2019-08-19</name>
    <trkseg>
      <trkpt lat="59.421768214563" lon="17.966688815932">
        <ele>40.2</ele>
        <time>2019-08-19T07:37:55Z</time>
      </trkpt>
      <trkpt lat="59.421760419396" lon="17.966595357747">
        <ele>40.4</ele>
        <time>2019-08-19T07:37:57Z</time>
      </trkpt>
      <trkpt lat="59.421471662941" lon="17.965598246923">
        <ele>40.4</ele>
        <time>2019-08-19T07:38:09Z</time>
      </trkpt>
      <trkpt lat="59.421257673034" lon="17.96489944792">
        <ele>39.6</ele>
        <time>2019-08-19T07:38:16Z</time>
      </trkpt>
      <trkpt lat="59.421234371352" lon="17.964702724727">
        <ele>39.6</ele>
        <time>2019-08-19T07:38:18Z</time>
      </trkpt>
      <trkpt lat="59.421238897578" lon="17.964446238587">
        <ele>38.8</ele>
        <time>2019-08-19T07:38:20Z</time>
      </trkpt>
      <trkpt lat="59.421236969741" lon="17.964159158512">
        <ele>37.6</ele>
        <time>2019-08-19T07:38:22Z</time>
      </trkpt>
      <trkpt lat="59.421268234228" lon="17.96389697268">
        <ele>36.6</ele>
        <time>2019-08-19T07:38:24Z</time>
      </trkpt>
      <trkpt lat="59.421364542259" lon="17.963550297296">
        <ele>35</ele>
        <time>2019-08-19T07:38:27Z</time>
      </trkpt>
      <trkpt lat="59.421382144249" lon="17.963210914165">
        <ele>34.8</ele>
        <time>2019-08-19T07:38:30Z</time>
      </trkpt>
      <trkpt lat="59.42137116396" lon="17.9630151968">
        <ele>35.4</ele>
        <time>2019-08-19T07:38:32Z</time>
      </trkpt>
      <trkpt lat="59.421294721032" lon="17.962667683226">
        <ele>36.2</ele>
        <time>2019-08-19T07:38:35Z</time>
      </trkpt>
      <trkpt lat="59.421247782392" lon="17.961563619358">
        <ele>36.2</ele>
        <time>2019-08-19T07:38:48Z</time>
      </trkpt>
      <trkpt lat="59.421041000919" lon="17.960449581029">
        <ele>36</ele>
        <time>2019-08-19T07:38:57Z</time>
      </trkpt>
      <trkpt lat="59.42080119476" lon="17.959418272053">
        <ele>36</ele>
        <time>2019-08-19T07:39:05Z</time>
      </trkpt>
      <trkpt lat="59.42070396472" lon="17.958992471533">
        <ele>37.2</ele>
        <time>2019-08-19T07:39:09Z</time>
      </trkpt>
      <trkpt lat="59.420664821247" lon="17.958799017281">
        <ele>38.4</ele>
        <time>2019-08-19T07:39:13Z</time>
      </trkpt>
      <trkpt lat="59.420661468487" lon="17.958783846042">
        <ele>38.2</ele>
        <time>2019-08-19T07:39:14Z</time>
      </trkpt>
      <trkpt lat="59.420513276495" lon="17.958829443578">
        <ele>38.4</ele>
        <time>2019-08-19T07:39:22Z</time>
      </trkpt>
      <trkpt lat="59.420148328569" lon="17.959192798943">
        <ele>39.4</ele>
        <time>2019-08-19T07:39:29Z</time>
      </trkpt>
      <trkpt lat="59.419612306064" lon="17.959373345069">
        <ele>39.8</ele>
        <time>2019-08-19T07:39:37Z</time>
      </trkpt>
      <trkpt lat="59.419475010542" lon="17.95949396061">
        <ele>39.2</ele>
        <time>2019-08-19T07:39:39Z</time>
      </trkpt>
      <trkpt lat="59.419284489955" lon="17.959469820738">
        <ele>38.4</ele>
        <time>2019-08-19T07:39:42Z</time>
      </trkpt>
      <trkpt lat="59.419116097584" lon="17.959522710527">
        <ele>37.8</ele>
        <time>2019-08-19T07:39:45Z</time>
      </trkpt>
      <trkpt lat="59.41853724357" lon="17.959766623817">
        <ele>38.2</ele>
        <time>2019-08-19T07:39:54Z</time>
      </trkpt>
      <trkpt lat="59.417947576905" lon="17.959918671483">
        <ele>38.2</ele>
        <time>2019-08-19T07:40:02Z</time>
      </trkpt>
      <trkpt lat="59.417380457551" lon="17.960127380793">
        <ele>38.6</ele>
        <time>2019-08-19T07:40:10Z</time>
      </trkpt>
      <trkpt lat="59.416896151369" lon="17.960493753642">
        <ele>39.6</ele>
        <time>2019-08-19T07:40:18Z</time>
      </trkpt>
      <trkpt lat="59.416737733459" lon="17.960664995859">
        <ele>40.8</ele>
        <time>2019-08-19T07:40:21Z</time>
      </trkpt>
      <trkpt lat="59.416371025334" lon="17.960984346249">
        <ele>42</ele>
        <time>2019-08-19T07:40:32Z</time>
      </trkpt>
      <trkpt lat="59.415873894845" lon="17.961505197515">
        <ele>42.8</ele>
        <time>2019-08-19T07:40:43Z</time>
      </trkpt>
      <trkpt lat="59.415821927065" lon="17.961562362073">
        <ele>43</ele>
        <time>2019-08-19T07:40:44Z</time>
      </trkpt>
      <trkpt lat="59.415633921048" lon="17.961824044991">
        <ele>44.2</ele>
        <time>2019-08-19T07:40:48Z</time>
      </trkpt>
      <trkpt lat="59.415222537396" lon="17.962525274745">
        <ele>44.6</ele>
        <time>2019-08-19T07:40:58Z</time>
      </trkpt>
      <trkpt lat="59.415146345925" lon="17.962674304927">
        <ele>45.4</ele>
        <time>2019-08-19T07:41:00Z</time>
      </trkpt>
      <trkpt lat="59.414934870588" lon="17.963195826745">
        <ele>45.4</ele>
        <time>2019-08-19T07:41:06Z</time>
      </trkpt>
      <trkpt lat="59.414629685609" lon="17.96411490208">
        <ele>46.4</ele>
        <time>2019-08-19T07:41:16Z</time>
      </trkpt>
      <trkpt lat="59.414420976299" lon="17.964836164575">
        <ele>47.6</ele>
        <time>2019-08-19T07:41:24Z</time>
      </trkpt>
      <trkpt lat="59.414312263056" lon="17.965193484972">
        <ele>48.8</ele>
        <time>2019-08-19T07:41:28Z</time>
      </trkpt>
      <trkpt lat="59.414237831784" lon="17.965453156234">
        <ele>49.8</ele>
        <time>2019-08-19T07:41:31Z</time>
      </trkpt>
      <trkpt lat="59.414186115461" lon="17.965617273836">
        <ele>50.2</ele>
        <time>2019-08-19T07:41:33Z</time>
      </trkpt>
      <trkpt lat="59.414132471301" lon="17.965778206316">
        <ele>51</ele>
        <time>2019-08-19T07:41:35Z</time>
      </trkpt>
      <trkpt lat="59.414079078598" lon="17.965948694162">
        <ele>51.6</ele>
        <time>2019-08-19T07:41:37Z</time>
      </trkpt>
      <trkpt lat="59.414027949008" lon="17.966125133157">
        <ele>52</ele>
        <time>2019-08-19T07:41:39Z</time>
      </trkpt>
      <trkpt lat="59.413910853865" lon="17.966452697809">
        <ele>53.2</ele>
        <time>2019-08-19T07:41:43Z</time>
      </trkpt>
      <trkpt lat="59.413725027142" lon="17.966881515813">
        <ele>54.4</ele>
        <time>2019-08-19T07:41:49Z</time>
      </trkpt>
      <trkpt lat="59.413525370284" lon="17.96723045431">
        <ele>55.4</ele>
        <time>2019-08-19T07:41:55Z</time>
      </trkpt>
      <trkpt lat="59.413383464717" lon="17.967441007638">
        <ele>56.8</ele>
        <time>2019-08-19T07:41:59Z</time>
      </trkpt>
      <trkpt lat="59.413306854151" lon="17.967539075868">
        <ele>57.4</ele>
        <time>2019-08-19T07:42:01Z</time>
      </trkpt>
      <trkpt lat="59.413227812834" lon="17.967617111357">
        <ele>57.8</ele>
        <time>2019-08-19T07:42:03Z</time>
      </trkpt>
      <trkpt lat="59.412926567348" lon="17.967911232228">
        <ele>59</ele>
        <time>2019-08-19T07:42:10Z</time>
      </trkpt>
      <trkpt lat="59.412680055669" lon="17.968031680131">
        <ele>60</ele>
        <time>2019-08-19T07:42:15Z</time>
      </trkpt>
      <trkpt lat="59.412260373936" lon="17.968144165229">
        <ele>60.2</ele>
        <time>2019-08-19T07:42:23Z</time>
      </trkpt>
      <trkpt lat="59.412055017386" lon="17.9680946282">
        <ele>61.2</ele>
        <time>2019-08-19T07:42:27Z</time>
      </trkpt>
      <trkpt lat="59.411471720965" lon="17.968283137131">
        <ele>61.4</ele>
        <time>2019-08-19T07:42:37Z</time>
      </trkpt>
      <trkpt lat="59.410906110353" lon="17.968649426161">
        <ele>60.6</ele>
        <time>2019-08-19T07:42:46Z</time>
      </trkpt>
      <trkpt lat="59.410741992751" lon="17.968878084393">
        <ele>60.2</ele>
        <time>2019-08-19T07:42:49Z</time>
      </trkpt>
      <trkpt lat="59.410549460508" lon="17.969232471125">
        <ele>59.8</ele>
        <time>2019-08-19T07:42:53Z</time>
      </trkpt>
      <trkpt lat="59.410209323006" lon="17.970131094624">
        <ele>59.8</ele>
        <time>2019-08-19T07:43:00Z</time>
      </trkpt>
      <trkpt lat="59.410068674724" lon="17.970557314239">
        <ele>58.8</ele>
        <time>2019-08-19T07:43:03Z</time>
      </trkpt>
      <trkpt lat="59.409941772758" lon="17.97095620886">
        <ele>57.4</ele>
        <time>2019-08-19T07:43:06Z</time>
      </trkpt>
      <trkpt lat="59.409750749257" lon="17.971493321012">
        <ele>56.2</ele>
        <time>2019-08-19T07:43:10Z</time>
      </trkpt>
      <trkpt lat="59.409385633693" lon="17.972365876802">
        <ele>55.2</ele>
        <time>2019-08-19T07:43:17Z</time>
      </trkpt>
      <trkpt lat="59.40932805004" lon="17.972485654153">
        <ele>54.8</ele>
        <time>2019-08-19T07:43:18Z</time>
      </trkpt>
      <trkpt lat="59.40915119195" lon="17.972815901013">
        <ele>53.8</ele>
        <time>2019-08-19T07:43:21Z</time>
      </trkpt>
      <trkpt lat="59.40875640446" lon="17.973571864574">
        <ele>53.2</ele>
        <time>2019-08-19T07:43:28Z</time>
      </trkpt>
      <trkpt lat="59.408514838102" lon="17.973966232969">
        <ele>52.6</ele>
        <time>2019-08-19T07:43:32Z</time>
      </trkpt>
      <trkpt lat="59.408123822467" lon="17.974573501624">
        <ele>51.6</ele>
        <time>2019-08-19T07:43:38Z</time>
      </trkpt>
      <trkpt lat="59.407838670229" lon="17.97484457227">
        <ele>50.4</ele>
        <time>2019-08-19T07:43:42Z</time>
      </trkpt>
      <trkpt lat="59.407300049335" lon="17.975092257415">
        <ele>49.8</ele>
        <time>2019-08-19T07:43:49Z</time>
      </trkpt>
      <trkpt lat="59.407234670515" lon="17.975113882717">
        <ele>49.8</ele>
        <time>2019-08-19T07:43:50Z</time>
      </trkpt>
      <trkpt lat="59.407099554287" lon="17.975141710625">
        <ele>49.6</ele>
        <time>2019-08-19T07:43:52Z</time>
      </trkpt>
      <trkpt lat="59.406955804702" lon="17.975157636235">
        <ele>49.4</ele>
        <time>2019-08-19T07:43:54Z</time>
      </trkpt>
      <trkpt lat="59.406888749502" lon="17.975181608469">
        <ele>49.2</ele>
        <time>2019-08-19T07:43:55Z</time>
      </trkpt>
      <trkpt lat="59.406769810341" lon="17.975298535974">
        <ele>49</ele>
        <time>2019-08-19T07:43:57Z</time>
      </trkpt>
      <trkpt lat="59.406383320932" lon="17.975805054191">
        <ele>48.4</ele>
        <time>2019-08-19T07:44:03Z</time>
      </trkpt>
      <trkpt lat="59.406246444505" lon="17.97599456895">
        <ele>48</ele>
        <time>2019-08-19T07:44:05Z</time>
      </trkpt>
      <trkpt lat="59.406025665259" lon="17.976342082524">
        <ele>46.2</ele>
        <time>2019-08-19T07:44:08Z</time>
      </trkpt>
      <trkpt lat="59.405892393049" lon="17.97659136023">
        <ele>45.4</ele>
        <time>2019-08-19T07:44:10Z</time>
      </trkpt>
      <trkpt lat="59.405823745288" lon="17.976701833672">
        <ele>44.8</ele>
        <time>2019-08-19T07:44:11Z</time>
      </trkpt>
      <trkpt lat="59.405756941545" lon="17.976797135875">
        <ele>44.6</ele>
        <time>2019-08-19T07:44:12Z</time>
      </trkpt>
      <trkpt lat="59.405638086203" lon="17.976892102802">
        <ele>44</ele>
        <time>2019-08-19T07:44:14Z</time>
      </trkpt>
      <trkpt lat="59.405582681844" lon="17.976890091146">
        <ele>43.6</ele>
        <time>2019-08-19T07:44:15Z</time>
      </trkpt>
      <trkpt lat="59.405537419584" lon="17.97685036094">
        <ele>43.4</ele>
        <time>2019-08-19T07:44:16Z</time>
      </trkpt>
      <trkpt lat="59.405433484024" lon="17.976614913369">
        <ele>42.6</ele>
        <time>2019-08-19T07:44:20Z</time>
      </trkpt>
      <trkpt lat="59.405383024986" lon="17.976578033009">
        <ele>42.4</ele>
        <time>2019-08-19T07:44:22Z</time>
      </trkpt>
      <trkpt lat="59.40524019741" lon="17.976489771602">
        <ele>41.4</ele>
        <time>2019-08-19T07:44:26Z</time>
      </trkpt>
      <trkpt lat="59.405165849957" lon="17.97636504893">
        <ele>41.2</ele>
        <time>2019-08-19T07:44:28Z</time>
      </trkpt>
      <trkpt lat="59.405101812241" lon="17.976185760089">
        <ele>41.2</ele>
        <time>2019-08-19T07:44:30Z</time>
      </trkpt>
      <trkpt lat="59.404722866542" lon="17.975283532373">
        <ele>41</ele>
        <time>2019-08-19T07:44:37Z</time>
      </trkpt>
      <trkpt lat="59.404648770546" lon="17.975063591317">
        <ele>41</ele>
        <time>2019-08-19T07:44:39Z</time>
      </trkpt>
      <trkpt lat="59.404516420345" lon="17.974875417662">
        <ele>41</ele>
        <time>2019-08-19T07:44:41Z</time>
      </trkpt>
      <trkpt lat="59.404353979123" lon="17.974727393308">
        <ele>40.6</ele>
        <time>2019-08-19T07:44:43Z</time>
      </trkpt>
      <trkpt lat="59.404270914494" lon="17.974671821311">
        <ele>40.4</ele>
        <time>2019-08-19T07:44:44Z</time>
      </trkpt>
      <trkpt lat="59.404025576281" lon="17.97451097265">
        <ele>39.2</ele>
        <time>2019-08-19T07:44:47Z</time>
      </trkpt>
      <trkpt lat="59.403663310563" lon="17.974335623302">
        <ele>40.4</ele>
        <time>2019-08-19T07:44:51Z</time>
      </trkpt>
      <trkpt lat="59.403431048114" lon="17.97422514986">
        <ele>41.4</ele>
        <time>2019-08-19T07:44:54Z</time>
      </trkpt>
      <trkpt lat="59.40336516638" lon="17.974163375257">
        <ele>41.8</ele>
        <time>2019-08-19T07:44:55Z</time>
      </trkpt>
      <trkpt lat="59.403163246409" lon="17.973943434201">
        <ele>42.6</ele>
        <time>2019-08-19T07:44:58Z</time>
      </trkpt>
      <trkpt lat="59.403092251716" lon="17.973926418944">
        <ele>43</ele>
        <time>2019-08-19T07:44:59Z</time>
      </trkpt>
      <trkpt lat="59.403062915066" lon="17.973974614869">
        <ele>43.2</ele>
        <time>2019-08-19T07:45:00Z</time>
      </trkpt>
      <trkpt lat="59.402816822482" lon="17.974214923942">
        <ele>42.8</ele>
        <time>2019-08-19T07:45:03Z</time>
      </trkpt>
      <trkpt lat="59.402439553163" lon="17.975069961561">
        <ele>42.6</ele>
        <time>2019-08-19T07:45:10Z</time>
      </trkpt>
      <trkpt lat="59.402002939992" lon="17.975959700246">
        <ele>43.2</ele>
        <time>2019-08-19T07:45:17Z</time>
      </trkpt>
      <trkpt lat="59.401755673942" lon="17.976471834336">
        <ele>42</ele>
        <time>2019-08-19T07:45:21Z</time>
      </trkpt>
      <trkpt lat="59.401393994957" lon="17.97726526499">
        <ele>41.2</ele>
        <time>2019-08-19T07:45:27Z</time>
      </trkpt>
      <trkpt lat="59.401213700288" lon="17.977645635612">
        <ele>40.8</ele>
        <time>2019-08-19T07:45:30Z</time>
      </trkpt>
      <trkpt lat="59.400834838408" lon="17.978498745394">
        <ele>40</ele>
        <time>2019-08-19T07:45:37Z</time>
      </trkpt>
      <trkpt lat="59.400726460441" lon="17.978735031155">
        <ele>39.8</ele>
        <time>2019-08-19T07:45:39Z</time>
      </trkpt>
      <trkpt lat="59.400329326019" lon="17.979579423761">
        <ele>39</ele>
        <time>2019-08-19T07:45:46Z</time>
      </trkpt>
      <trkpt lat="59.399918361462" lon="17.980413758087">
        <ele>39</ele>
        <time>2019-08-19T07:45:53Z</time>
      </trkpt>
      <trkpt lat="59.399648212825" lon="17.98104047275">
        <ele>38.8</ele>
        <time>2019-08-19T07:45:58Z</time>
      </trkpt>
      <trkpt lat="59.399595239217" lon="17.98117123039">
        <ele>38.6</ele>
        <time>2019-08-19T07:45:59Z</time>
      </trkpt>
      <trkpt lat="59.399172959095" lon="17.9820085822">
        <ele>37.8</ele>
        <time>2019-08-19T07:46:06Z</time>
      </trkpt>
      <trkpt lat="59.39906106073" lon="17.982221398641">
        <ele>37.2</ele>
        <time>2019-08-19T07:46:08Z</time>
      </trkpt>
      <trkpt lat="59.398547920812" lon="17.982877952868">
        <ele>37</ele>
        <time>2019-08-19T07:46:16Z</time>
      </trkpt>
      <trkpt lat="59.398360166252" lon="17.983089344386">
        <ele>36.8</ele>
        <time>2019-08-19T07:46:19Z</time>
      </trkpt>
      <trkpt lat="59.398304929531" lon="17.983178192526">
        <ele>36.6</ele>
        <time>2019-08-19T07:46:20Z</time>
      </trkpt>
      <trkpt lat="59.397903352702" lon="17.983717735429">
        <ele>35.6</ele>
        <time>2019-08-19T07:46:26Z</time>
      </trkpt>
      <trkpt lat="59.397607303994" lon="17.984047982289">
        <ele>34.4</ele>
        <time>2019-08-19T07:46:30Z</time>
      </trkpt>
      <trkpt lat="59.397063234865" lon="17.984593895436">
        <ele>33.6</ele>
        <time>2019-08-19T07:46:37Z</time>
      </trkpt>
      <trkpt lat="59.396523189048" lon="17.985138551298">
        <ele>34</ele>
        <time>2019-08-19T07:46:44Z</time>
      </trkpt>
      <trkpt lat="59.396229068177" lon="17.985413058523">
        <ele>33.4</ele>
        <time>2019-08-19T07:46:48Z</time>
      </trkpt>
      <trkpt lat="59.395722214684" lon="17.985832069704">
        <ele>32.8</ele>
        <time>2019-08-19T07:46:55Z</time>
      </trkpt>
      <trkpt lat="59.395197675382" lon="17.98616684279">
        <ele>33</ele>
        <time>2019-08-19T07:47:02Z</time>
      </trkpt>
      <trkpt lat="59.394965161476" lon="17.986318471361">
        <ele>32</ele>
        <time>2019-08-19T07:47:05Z</time>
      </trkpt>
      <trkpt lat="59.394736922339" lon="17.986463310593">
        <ele>30.4</ele>
        <time>2019-08-19T07:47:08Z</time>
      </trkpt>
      <trkpt lat="59.394587053967" lon="17.986560708271">
        <ele>29.2</ele>
        <time>2019-08-19T07:47:10Z</time>
      </trkpt>
      <trkpt lat="59.394013815826" lon="17.986871844399">
        <ele>28.4</ele>
        <time>2019-08-19T07:47:17Z</time>
      </trkpt>
      <trkpt lat="59.393935947975" lon="17.986905371999">
        <ele>28.2</ele>
        <time>2019-08-19T07:47:18Z</time>
      </trkpt>
      <trkpt lat="59.393676947265" lon="17.986939486332">
        <ele>27.8</ele>
        <time>2019-08-19T07:47:21Z</time>
      </trkpt>
      <trkpt lat="59.393232874203" lon="17.987287419001">
        <ele>27</ele>
        <time>2019-08-19T07:47:26Z</time>
      </trkpt>
      <trkpt lat="59.392716465344" lon="17.987781783463">
        <ele>26.2</ele>
        <time>2019-08-19T07:47:33Z</time>
      </trkpt>
      <trkpt lat="59.392419075532" lon="17.988361810943">
        <ele>25.8</ele>
        <time>2019-08-19T07:47:38Z</time>
      </trkpt>
      <trkpt lat="59.392373477996" lon="17.988503884148">
        <ele>25.4</ele>
        <time>2019-08-19T07:47:39Z</time>
      </trkpt>
      <trkpt lat="59.392260992898" lon="17.988964134277">
        <ele>24.8</ele>
        <time>2019-08-19T07:47:42Z</time>
      </trkpt>
      <trkpt lat="59.392167953808" lon="17.989468305562">
        <ele>23.6</ele>
        <time>2019-08-19T07:47:45Z</time>
      </trkpt>
      <trkpt lat="59.391923453785" lon="17.990394254055">
        <ele>22.6</ele>
        <time>2019-08-19T07:47:51Z</time>
      </trkpt>
      <trkpt lat="59.39179060067" lon="17.990855426193">
        <ele>21.4</ele>
        <time>2019-08-19T07:47:54Z</time>
      </trkpt>
      <trkpt lat="59.391588010147" lon="17.991495300439">
        <ele>20.4</ele>
        <time>2019-08-19T07:47:58Z</time>
      </trkpt>
      <trkpt lat="59.391281316426" lon="17.992500374068">
        <ele>19.6</ele>
        <time>2019-08-19T07:48:04Z</time>
      </trkpt>
      <trkpt lat="59.391227923723" lon="17.992672957389">
        <ele>19.4</ele>
        <time>2019-08-19T07:48:05Z</time>
      </trkpt>
      <trkpt lat="59.391008234124" lon="17.993339569896">
        <ele>18.2</ele>
        <time>2019-08-19T07:48:09Z</time>
      </trkpt>
      <trkpt lat="59.390696092168" lon="17.994316983255">
        <ele>17.6</ele>
        <time>2019-08-19T07:48:15Z</time>
      </trkpt>
      <trkpt lat="59.39039166156" lon="17.995279560651">
        <ele>17.4</ele>
        <time>2019-08-19T07:48:21Z</time>
      </trkpt>
      <trkpt lat="59.390076418301" lon="17.996161336531">
        <ele>17.2</ele>
        <time>2019-08-19T07:48:27Z</time>
      </trkpt>
      <trkpt lat="59.389944990109" lon="17.996363507959">
        <ele>17.2</ele>
        <time>2019-08-19T07:48:29Z</time>
      </trkpt>
      <trkpt lat="59.389717002429" lon="17.996636841718">
        <ele>18.8</ele>
        <time>2019-08-19T07:48:33Z</time>
      </trkpt>
      <trkpt lat="59.389670231427" lon="17.996705657117">
        <ele>19.2</ele>
        <time>2019-08-19T07:48:34Z</time>
      </trkpt>
      <trkpt lat="59.389623292787" lon="17.996762737856">
        <ele>19.8</ele>
        <time>2019-08-19T07:48:35Z</time>
      </trkpt>
      <trkpt lat="59.389531427163" lon="17.996870109995">
        <ele>20.4</ele>
        <time>2019-08-19T07:48:37Z</time>
      </trkpt>
      <trkpt lat="59.389492451328" lon="17.996926855458">
        <ele>20.6</ele>
        <time>2019-08-19T07:48:38Z</time>
      </trkpt>
      <trkpt lat="59.389318862179" lon="17.997200692131">
        <ele>21.4</ele>
        <time>2019-08-19T07:48:42Z</time>
      </trkpt>
      <trkpt lat="59.389187433987" lon="17.997429769458">
        <ele>22.6</ele>
        <time>2019-08-19T07:48:45Z</time>
      </trkpt>
      <trkpt lat="59.389056257252" lon="17.997625822099">
        <ele>24</ele>
        <time>2019-08-19T07:48:48Z</time>
      </trkpt>
      <trkpt lat="59.388901946473" lon="17.997780971068">
        <ele>25</ele>
        <time>2019-08-19T07:48:52Z</time>
      </trkpt>
      <trkpt lat="59.388783929321" lon="17.997873674882">
        <ele>26.4</ele>
        <time>2019-08-19T07:48:55Z</time>
      </trkpt>
      <trkpt lat="59.38866666654" lon="17.997989428921">
        <ele>27.8</ele>
        <time>2019-08-19T07:48:58Z</time>
      </trkpt>
      <trkpt lat="59.388584775377" lon="17.998085317857">
        <ele>28.8</ele>
        <time>2019-08-19T07:49:00Z</time>
      </trkpt>
      <trkpt lat="59.388475140125" lon="17.998228899804">
        <ele>29.8</ele>
        <time>2019-08-19T07:49:03Z</time>
      </trkpt>
      <trkpt lat="59.388441780163" lon="17.998275754625">
        <ele>30</ele>
        <time>2019-08-19T07:49:04Z</time>
      </trkpt>
      <trkpt lat="59.388373719135" lon="17.998381198927">
        <ele>30.2</ele>
        <time>2019-08-19T07:49:06Z</time>
      </trkpt>
      <trkpt lat="59.388218402528" lon="17.998608516055">
        <ele>30.4</ele>
        <time>2019-08-19T07:49:10Z</time>
      </trkpt>
      <trkpt lat="59.388135170261" lon="17.998728628682">
        <ele>30.4</ele>
        <time>2019-08-19T07:49:12Z</time>
      </trkpt>
      <trkpt lat="59.388044142827" lon="17.998836000821">
        <ele>30.4</ele>
        <time>2019-08-19T07:49:14Z</time>
      </trkpt>
      <trkpt lat="59.38794582314" lon="17.998884783479">
        <ele>30</ele>
        <time>2019-08-19T07:49:16Z</time>
      </trkpt>
      <trkpt lat="59.387860914493" lon="17.998862822901">
        <ele>28.8</ele>
        <time>2019-08-19T07:49:19Z</time>
      </trkpt>
      <trkpt lat="59.387839624467" lon="17.99878411686">
        <ele>28</ele>
        <time>2019-08-19T07:49:21Z</time>
      </trkpt>
      <trkpt lat="59.387847000539" lon="17.998761988644">
        <ele>27.8</ele>
        <time>2019-08-19T07:49:22Z</time>
      </trkpt>
      <trkpt lat="59.387876504827" lon="17.998658723636">
        <ele>27.4</ele>
        <time>2019-08-19T07:49:24Z</time>
      </trkpt>
      <trkpt lat="59.38775555401" lon="17.998145918994">
        <ele>27.4</ele>
        <time>2019-08-19T07:49:31Z</time>
      </trkpt>
      <trkpt lat="59.387691683932" lon="17.998014574621">
        <ele>28.4</ele>
        <time>2019-08-19T07:49:33Z</time>
      </trkpt>
      <trkpt lat="59.387592442236" lon="17.997931426173">
        <ele>29</ele>
        <time>2019-08-19T07:49:35Z</time>
      </trkpt>
      <trkpt lat="59.386926081186" lon="17.997726572537">
        <ele>29.8</ele>
        <time>2019-08-19T07:49:41Z</time>
      </trkpt>
      <trkpt lat="59.386351082846" lon="17.997713245316">
        <ele>29.4</ele>
        <time>2019-08-19T07:49:47Z</time>
      </trkpt>
      <trkpt lat="59.385987224567" lon="17.997722465406">
        <ele>27.4</ele>
        <time>2019-08-19T07:49:51Z</time>
      </trkpt>
      <trkpt lat="59.385549521749" lon="17.997760351594">
        <ele>26.2</ele>
        <time>2019-08-19T07:49:56Z</time>
      </trkpt>
      <trkpt lat="59.385032442338" lon="17.997813828116">
        <ele>25</ele>
        <time>2019-08-19T07:50:02Z</time>
      </trkpt>
      <trkpt lat="59.384701860202" lon="17.997839560549">
        <ele>23.8</ele>
        <time>2019-08-19T07:50:06Z</time>
      </trkpt>
      <trkpt lat="59.384446463709" lon="17.997856156711">
        <ele>22.6</ele>
        <time>2019-08-19T07:50:09Z</time>
      </trkpt>
      <trkpt lat="59.383886888065" lon="17.99793251582">
        <ele>23.2</ele>
        <time>2019-08-19T07:50:16Z</time>
      </trkpt>
      <trkpt lat="59.383808684938" lon="17.997960343728">
        <ele>23</ele>
        <time>2019-08-19T07:50:17Z</time>
      </trkpt>
      <trkpt lat="59.383656385815" lon="17.998082384192">
        <ele>22.4</ele>
        <time>2019-08-19T07:50:19Z</time>
      </trkpt>
      <trkpt lat="59.383457148052" lon="17.998354209209">
        <ele>21.4</ele>
        <time>2019-08-19T07:50:22Z</time>
      </trkpt>
      <trkpt lat="59.38326537018" lon="17.998633158841">
        <ele>20.4</ele>
        <time>2019-08-19T07:50:25Z</time>
      </trkpt>
      <trkpt lat="59.383082477122" lon="17.998900709089">
        <ele>19.8</ele>
        <time>2019-08-19T07:50:28Z</time>
      </trkpt>
      <trkpt lat="59.382988851299" lon="17.999130624606">
        <ele>19.4</ele>
        <time>2019-08-19T07:50:30Z</time>
      </trkpt>
      <trkpt lat="59.382954234052" lon="17.999269261232">
        <ele>19.2</ele>
        <time>2019-08-19T07:50:31Z</time>
      </trkpt>
      <trkpt lat="59.382870666509" lon="17.999681399255">
        <ele>18.8</ele>
        <time>2019-08-19T07:50:34Z</time>
      </trkpt>
      <trkpt lat="59.382752230262" lon="17.999871333109">
        <ele>19</ele>
        <time>2019-08-19T07:50:36Z</time>
      </trkpt>
      <trkpt lat="59.382280916025" lon="18.000405260139">
        <ele>19.8</ele>
        <time>2019-08-19T07:50:43Z</time>
      </trkpt>
      <trkpt lat="59.381785210459" lon="18.000991657863">
        <ele>19</ele>
        <time>2019-08-19T07:50:51Z</time>
      </trkpt>
      <trkpt lat="59.381617237183" lon="18.001221154285">
        <ele>17.8</ele>
        <time>2019-08-19T07:50:54Z</time>
      </trkpt>
      <trkpt lat="59.381526796482" lon="18.001340931636">
        <ele>16.6</ele>
        <time>2019-08-19T07:50:56Z</time>
      </trkpt>
      <trkpt lat="59.381486898638" lon="18.001427181387">
        <ele>16.4</ele>
        <time>2019-08-19T07:50:57Z</time>
      </trkpt>
      <trkpt lat="59.381381621974" lon="18.001552239335">
        <ele>16</ele>
        <time>2019-08-19T07:50:59Z</time>
      </trkpt>
      <trkpt lat="59.381234100534" lon="18.00159372974">
        <ele>16.6</ele>
        <time>2019-08-19T07:51:01Z</time>
      </trkpt>
      <trkpt lat="59.381107114749" lon="18.001570428058">
        <ele>18.2</ele>
        <time>2019-08-19T07:51:03Z</time>
      </trkpt>
      <trkpt lat="59.380860351613" lon="18.001534469707">
        <ele>19.4</ele>
        <time>2019-08-19T07:51:07Z</time>
      </trkpt>
      <trkpt lat="59.38027219369" lon="18.001381500032">
        <ele>19.4</ele>
        <time>2019-08-19T07:51:16Z</time>
      </trkpt>
      <trkpt lat="59.380093994496" lon="18.001410333768">
        <ele>19.8</ele>
        <time>2019-08-19T07:51:19Z</time>
      </trkpt>
      <trkpt lat="59.379918645148" lon="18.001520136658">
        <ele>20.4</ele>
        <time>2019-08-19T07:51:22Z</time>
      </trkpt>
      <trkpt lat="59.379669702718" lon="18.001680817681">
        <ele>21.6</ele>
        <time>2019-08-19T07:51:26Z</time>
      </trkpt>
      <trkpt lat="59.379311376493" lon="18.001941662409">
        <ele>22.6</ele>
        <time>2019-08-19T07:51:32Z</time>
      </trkpt>
      <trkpt lat="59.378789267942" lon="18.002326810714">
        <ele>23.2</ele>
        <time>2019-08-19T07:51:42Z</time>
      </trkpt>
      <trkpt lat="59.378746268795" lon="18.002353548975">
        <ele>23.6</ele>
        <time>2019-08-19T07:51:43Z</time>
      </trkpt>
      <trkpt lat="59.378568488696" lon="18.002496125094">
        <ele>24.8</ele>
        <time>2019-08-19T07:51:47Z</time>
      </trkpt>
      <trkpt lat="59.378189962092" lon="18.002775074726">
        <ele>26</ele>
        <time>2019-08-19T07:51:55Z</time>
      </trkpt>
      <trkpt lat="59.377985695189" lon="18.002941623079">
        <ele>26.2</ele>
        <time>2019-08-19T07:51:59Z</time>
      </trkpt>
      <trkpt lat="59.377852171522" lon="18.003126024879">
        <ele>25</ele>
        <time>2019-08-19T07:52:05Z</time>
      </trkpt>
      <trkpt lat="59.377601385074" lon="18.003189056767">
        <ele>24.4</ele>
        <time>2019-08-19T07:52:13Z</time>
      </trkpt>
      <trkpt lat="59.377479679886" lon="18.003276982898">
        <ele>23.8</ele>
        <time>2019-08-19T07:52:15Z</time>
      </trkpt>
      <trkpt lat="59.3770694697" lon="18.003741256339">
        <ele>22.6</ele>
        <time>2019-08-19T07:52:21Z</time>
      </trkpt>
      <trkpt lat="59.376803512013" lon="18.003960107748">
        <ele>21.6</ele>
        <time>2019-08-19T07:52:24Z</time>
      </trkpt>
      <trkpt lat="59.376492627342" lon="18.004106120446">
        <ele>20</ele>
        <time>2019-08-19T07:52:27Z</time>
      </trkpt>
      <trkpt lat="59.376124242837" lon="18.004271076238">
        <ele>19</ele>
        <time>2019-08-19T07:52:31Z</time>
      </trkpt>
      <trkpt lat="59.375594003843" lon="18.004593695569">
        <ele>18.4</ele>
        <time>2019-08-19T07:52:37Z</time>
      </trkpt>
      <trkpt lat="59.375506329169" lon="18.004667707746">
        <ele>17.8</ele>
        <time>2019-08-19T07:52:38Z</time>
      </trkpt>
      <trkpt lat="59.375055718225" lon="18.005017484433">
        <ele>16.6</ele>
        <time>2019-08-19T07:52:44Z</time>
      </trkpt>
      <trkpt lat="59.37455238513" lon="18.005539006251">
        <ele>16</ele>
        <time>2019-08-19T07:52:50Z</time>
      </trkpt>
      <trkpt lat="59.3741190409" lon="18.005907642213">
        <ele>15.6</ele>
        <time>2019-08-19T07:52:55Z</time>
      </trkpt>
      <trkpt lat="59.373591567933" lon="18.006286923188">
        <ele>15.2</ele>
        <time>2019-08-19T07:53:01Z</time>
      </trkpt>
      <trkpt lat="59.373096868195" lon="18.006714651545">
        <ele>15.2</ele>
        <time>2019-08-19T07:53:07Z</time>
      </trkpt>
      <trkpt lat="59.372600156801" lon="18.007045736595">
        <ele>15.8</ele>
        <time>2019-08-19T07:53:14Z</time>
      </trkpt>
      <trkpt lat="59.372240405653" lon="18.007405068648">
        <ele>16.6</ele>
        <time>2019-08-19T07:53:19Z</time>
      </trkpt>
      <trkpt lat="59.371689547185" lon="18.007784517261">
        <ele>15.8</ele>
        <time>2019-08-19T07:53:27Z</time>
      </trkpt>
      <trkpt lat="59.371629197505" lon="18.007805974925">
        <ele>15.6</ele>
        <time>2019-08-19T07:53:28Z</time>
      </trkpt>
      <trkpt lat="59.371052271328" lon="18.00788518388">
        <ele>16.2</ele>
        <time>2019-08-19T07:53:35Z</time>
      </trkpt>
      <trkpt lat="59.370498982109" lon="18.008086684756">
        <ele>15.8</ele>
        <time>2019-08-19T07:53:43Z</time>
      </trkpt>
      <trkpt lat="59.370121461333" lon="18.00824979653">
        <ele>16.8</ele>
        <time>2019-08-19T07:53:49Z</time>
      </trkpt>
      <trkpt lat="59.369729272232" lon="18.008458924935">
        <ele>18.2</ele>
        <time>2019-08-19T07:53:56Z</time>
      </trkpt>
      <trkpt lat="59.369674873701" lon="18.008486333748">
        <ele>18.6</ele>
        <time>2019-08-19T07:53:57Z</time>
      </trkpt>
      <trkpt lat="59.369513689764" lon="18.008549784731">
        <ele>19.2</ele>
        <time>2019-08-19T07:54:00Z</time>
      </trkpt>
      <trkpt lat="59.369403970693" lon="18.008587419462">
        <ele>19.4</ele>
        <time>2019-08-19T07:54:02Z</time>
      </trkpt>
      <trkpt lat="59.369248486448" lon="18.008660761087">
        <ele>19</ele>
        <time>2019-08-19T07:54:05Z</time>
      </trkpt>
      <trkpt lat="59.36899099448" lon="18.008870224768">
        <ele>18.2</ele>
        <time>2019-08-19T07:54:10Z</time>
      </trkpt>
      <trkpt lat="59.368730065933" lon="18.009263419697">
        <ele>18.6</ele>
        <time>2019-08-19T07:54:16Z</time>
      </trkpt>
      <trkpt lat="59.368496294742" lon="18.009770105552">
        <ele>18.6</ele>
        <time>2019-08-19T07:54:23Z</time>
      </trkpt>
      <trkpt lat="59.368408200973" lon="18.009901198468">
        <ele>18.6</ele>
        <time>2019-08-19T07:54:25Z</time>
      </trkpt>
      <trkpt lat="59.368351204053" lon="18.01011812204">
        <ele>18.6</ele>
        <time>2019-08-19T07:54:27Z</time>
      </trkpt>
      <trkpt lat="59.368293368943" lon="18.010352228507">
        <ele>18.6</ele>
        <time>2019-08-19T07:54:29Z</time>
      </trkpt>
      <trkpt lat="59.367993045466" lon="18.011140630021">
        <ele>19.6</ele>
        <time>2019-08-19T07:54:36Z</time>
      </trkpt>
      <trkpt lat="59.367532376242" lon="18.011875052099">
        <ele>20.4</ele>
        <time>2019-08-19T07:54:45Z</time>
      </trkpt>
      <trkpt lat="59.367428440682" lon="18.012012179983">
        <ele>20.6</ele>
        <time>2019-08-19T07:54:47Z</time>
      </trkpt>
      <trkpt lat="59.367315704127" lon="18.01214570365">
        <ele>20.6</ele>
        <time>2019-08-19T07:54:49Z</time>
      </trkpt>
      <trkpt lat="59.367197770794" lon="18.012220973112">
        <ele>21</ele>
        <time>2019-08-19T07:54:51Z</time>
      </trkpt>
      <trkpt lat="59.367106408084" lon="18.012348461811">
        <ele>21.2</ele>
        <time>2019-08-19T07:54:53Z</time>
      </trkpt>
      <trkpt lat="59.367026947672" lon="18.012494558328">
        <ele>21.2</ele>
        <time>2019-08-19T07:54:55Z</time>
      </trkpt>
      <trkpt lat="59.366868865038" lon="18.012675020635">
        <ele>21.6</ele>
        <time>2019-08-19T07:54:58Z</time>
      </trkpt>
      <trkpt lat="59.366768449876" lon="18.012796558185">
        <ele>22.8</ele>
        <time>2019-08-19T07:55:00Z</time>
      </trkpt>
      <trkpt lat="59.366306020453" lon="18.013417908432">
        <ele>23.8</ele>
        <time>2019-08-19T07:55:09Z</time>
      </trkpt>
      <trkpt lat="59.365848033437" lon="18.014053591728">
        <ele>24</ele>
        <time>2019-08-19T07:55:17Z</time>
      </trkpt>
      <trkpt lat="59.365386274566" lon="18.014681982771">
        <ele>23.6</ele>
        <time>2019-08-19T07:55:25Z</time>
      </trkpt>
      <trkpt lat="59.365253756727" lon="18.01489748142">
        <ele>24</ele>
        <time>2019-08-19T07:55:28Z</time>
      </trkpt>
      <trkpt lat="59.365046304702" lon="18.015013822192">
        <ele>24</ele>
        <time>2019-08-19T07:55:32Z</time>
      </trkpt>
      <trkpt lat="59.364949409938" lon="18.014950706485">
        <ele>23.6</ele>
        <time>2019-08-19T07:55:34Z</time>
      </trkpt>
      <trkpt lat="59.364833236804" lon="18.014856829205">
        <ele>23.2</ele>
        <time>2019-08-19T07:55:37Z</time>
      </trkpt>
      <trkpt lat="59.364758051161" lon="18.014814668248">
        <ele>23.4</ele>
        <time>2019-08-19T07:55:39Z</time>
      </trkpt>
      <trkpt lat="59.364682194966" lon="18.014686592816">
        <ele>24</ele>
        <time>2019-08-19T07:55:42Z</time>
      </trkpt>
      <trkpt lat="59.364474575303" lon="18.014578298668">
        <ele>24.2</ele>
        <time>2019-08-19T07:55:44Z</time>
      </trkpt>
      <trkpt lat="59.364401568954" lon="18.014657339985">
        <ele>24.8</ele>
        <time>2019-08-19T07:55:46Z</time>
      </trkpt>
      <trkpt lat="59.364388325552" lon="18.014842663794">
        <ele>25.2</ele>
        <time>2019-08-19T07:55:48Z</time>
      </trkpt>
      <trkpt lat="59.364410705225" lon="18.015110046404">
        <ele>25.8</ele>
        <time>2019-08-19T07:55:51Z</time>
      </trkpt>
      <trkpt lat="59.364300315602" lon="18.015601141925">
        <ele>27</ele>
        <time>2019-08-19T07:55:58Z</time>
      </trkpt>
      <trkpt lat="59.364231081108" lon="18.016001796745">
        <ele>28.2</ele>
        <time>2019-08-19T07:56:03Z</time>
      </trkpt>
      <trkpt lat="59.36411356687" lon="18.016383340833">
        <ele>29.4</ele>
        <time>2019-08-19T07:56:09Z</time>
      </trkpt>
      <trkpt lat="59.364004434532" lon="18.016414689139">
        <ele>30</ele>
        <time>2019-08-19T07:56:13Z</time>
      </trkpt>
      <trkpt lat="59.363898403497" lon="18.016263312025">
        <ele>30.6</ele>
        <time>2019-08-19T07:56:18Z</time>
      </trkpt>
      <trkpt lat="59.363814416859" lon="18.016450898947">
        <ele>30.8</ele>
        <time>2019-08-19T07:56:19Z</time>
      </trkpt>
      <trkpt lat="59.363776782128" lon="18.016258953437">
        <ele>31</ele>
        <time>2019-08-19T07:56:23Z</time>
      </trkpt>
      <trkpt lat="59.363752893713" lon="18.016226347846">
        <ele>31</ele>
        <time>2019-08-19T07:56:24Z</time>
      </trkpt>
      <trkpt lat="59.363676450785" lon="18.016140181914">
        <ele>30.8</ele>
        <time>2019-08-19T07:56:26Z</time>
      </trkpt>
      <trkpt lat="59.363542843299" lon="18.016037922734">
        <ele>31.2</ele>
        <time>2019-08-19T07:56:30Z</time>
      </trkpt>
      <trkpt lat="59.363533874666" lon="18.015990648818">
        <ele>32</ele>
        <time>2019-08-19T07:56:31Z</time>
      </trkpt>
      <trkpt lat="59.363508980423" lon="18.015836589496">
        <ele>33</ele>
        <time>2019-08-19T07:56:34Z</time>
      </trkpt>
      <trkpt lat="59.363098267323" lon="18.015955444838">
        <ele>34</ele>
        <time>2019-08-19T07:56:42Z</time>
      </trkpt>
      <trkpt lat="59.363046383362" lon="18.015982518375">
        <ele>34</ele>
        <time>2019-08-19T07:56:43Z</time>
      </trkpt>
      <trkpt lat="59.362940352327" lon="18.016026774807">
        <ele>34</ele>
        <time>2019-08-19T07:56:45Z</time>
      </trkpt>
      <trkpt lat="59.362730050456" lon="18.016107995418">
        <ele>34</ele>
        <time>2019-08-19T07:56:49Z</time>
      </trkpt>
      <trkpt lat="59.362595101866" lon="18.016194915721">
        <ele>34.4</ele>
        <time>2019-08-19T07:56:52Z</time>
      </trkpt>
      <trkpt lat="59.362492758867" lon="18.016251493546">
        <ele>34.4</ele>
        <time>2019-08-19T07:56:54Z</time>
      </trkpt>
      <trkpt lat="59.362416735034" lon="18.016363224273">
        <ele>34.6</ele>
        <time>2019-08-19T07:56:56Z</time>
      </trkpt>
      <trkpt lat="59.362349512196" lon="18.016491383524">
        <ele>34.8</ele>
        <time>2019-08-19T07:56:58Z</time>
      </trkpt>
      <trkpt lat="59.36227122525" lon="18.016587188641">
        <ele>35.2</ele>
        <time>2019-08-19T07:57:00Z</time>
      </trkpt>
      <trkpt lat="59.362080369387" lon="18.016727501647">
        <ele>36.4</ele>
        <time>2019-08-19T07:57:05Z</time>
      </trkpt>
      <trkpt lat="59.361867804403" lon="18.016833281225">
        <ele>37.4</ele>
        <time>2019-08-19T07:57:11Z</time>
      </trkpt>
      <trkpt lat="59.361714918547" lon="18.016989352203">
        <ele>37</ele>
        <time>2019-08-19T07:57:14Z</time>
      </trkpt>
      <trkpt lat="59.361539569199" lon="18.017097311075">
        <ele>36</ele>
        <time>2019-08-19T07:57:17Z</time>
      </trkpt>
      <trkpt lat="59.361402692772" lon="18.01714215424">
        <ele>35.2</ele>
        <time>2019-08-19T07:57:19Z</time>
      </trkpt>
      <trkpt lat="59.36126455906" lon="18.017193535287">
        <ele>34.6</ele>
        <time>2019-08-19T07:57:21Z</time>
      </trkpt>
      <trkpt lat="59.361114606869" lon="18.017263524152">
        <ele>34</ele>
        <time>2019-08-19T07:57:23Z</time>
      </trkpt>
      <trkpt lat="59.360925511205" lon="18.017318509416">
        <ele>32.8</ele>
        <time>2019-08-19T07:57:25Z</time>
      </trkpt>
      <trkpt lat="59.36071554461" lon="18.017329992619">
        <ele>31.6</ele>
        <time>2019-08-19T07:57:27Z</time>
      </trkpt>
      <trkpt lat="59.36038697413" lon="18.017357485251">
        <ele>30.4</ele>
        <time>2019-08-19T07:57:30Z</time>
      </trkpt>
      <trkpt lat="59.359812730161" lon="18.017380284019">
        <ele>29.4</ele>
        <time>2019-08-19T07:57:36Z</time>
      </trkpt>
      <trkpt lat="59.359725139306" lon="18.017380619295">
        <ele>29.2</ele>
        <time>2019-08-19T07:57:37Z</time>
      </trkpt>
      <trkpt lat="59.359117619194" lon="18.017336362863">
        <ele>28</ele>
        <time>2019-08-19T07:57:44Z</time>
      </trkpt>
      <trkpt lat="59.358515631136" lon="18.01721591496">
        <ele>27.6</ele>
        <time>2019-08-19T07:57:51Z</time>
      </trkpt>
      <trkpt lat="59.357912218155" lon="18.017036877576">
        <ele>27</ele>
        <time>2019-08-19T07:57:58Z</time>
      </trkpt>
      <trkpt lat="59.357390780156" lon="18.016896229294">
        <ele>26</ele>
        <time>2019-08-19T07:58:05Z</time>
      </trkpt>
      <trkpt lat="59.357323641137" lon="18.016870077766">
        <ele>25.6</ele>
        <time>2019-08-19T07:58:06Z</time>
      </trkpt>
      <trkpt lat="59.357196487714" lon="18.016821295108">
        <ele>24.8</ele>
        <time>2019-08-19T07:58:08Z</time>
      </trkpt>
      <trkpt lat="59.356884681034" lon="18.016723813611">
        <ele>24.4</ele>
        <time>2019-08-19T07:58:13Z</time>
      </trkpt>
      <trkpt lat="59.35670480546" lon="18.016607305201">
        <ele>25</ele>
        <time>2019-08-19T07:58:16Z</time>
      </trkpt>
      <trkpt lat="59.356568348128" lon="18.016548128987">
        <ele>25.4</ele>
        <time>2019-08-19T07:58:18Z</time>
      </trkpt>
      <trkpt lat="59.356359890275" lon="18.016491383524">
        <ele>25.4</ele>
        <time>2019-08-19T07:58:21Z</time>
      </trkpt>
      <trkpt lat="59.35576687085" lon="18.016289044458">
        <ele>24.8</ele>
        <time>2019-08-19T07:58:28Z</time>
      </trkpt>
      <trkpt lat="59.355642567273" lon="18.016226766941">
        <ele>24.2</ele>
        <time>2019-08-19T07:58:30Z</time>
      </trkpt>
      <trkpt lat="59.355568471277" lon="18.016058793665">
        <ele>23.8</ele>
        <time>2019-08-19T07:58:32Z</time>
      </trkpt>
      <trkpt lat="59.355481970069" lon="18.015890820389">
        <ele>23.8</ele>
        <time>2019-08-19T07:58:34Z</time>
      </trkpt>
      <trkpt lat="59.355378285966" lon="18.015745813519">
        <ele>23.8</ele>
        <time>2019-08-19T07:58:36Z</time>
      </trkpt>
      <trkpt lat="59.355192962157" lon="18.015650343678">
        <ele>23.8</ele>
        <time>2019-08-19T07:58:39Z</time>
      </trkpt>
      <trkpt lat="59.355082237258" lon="18.015488992103">
        <ele>22.6</ele>
        <time>2019-08-19T07:58:43Z</time>
      </trkpt>
      <trkpt lat="59.355023480139" lon="18.015415650478">
        <ele>21.6</ele>
        <time>2019-08-19T07:58:53Z</time>
      </trkpt>
      <trkpt lat="59.355014679144" lon="18.015401149791">
        <ele>21</ele>
        <time>2019-08-19T07:59:16Z</time>
      </trkpt>
      <trkpt lat="59.354948378315" lon="18.015302746285">
        <ele>21.2</ele>
        <time>2019-08-19T07:59:19Z</time>
      </trkpt>
      <trkpt lat="59.354765401438" lon="18.015144663651">
        <ele>21.8</ele>
        <time>2019-08-19T07:59:24Z</time>
      </trkpt>
      <trkpt lat="59.354807897671" lon="18.014812321316">
        <ele>20.2</ele>
        <time>2019-08-19T07:59:29Z</time>
      </trkpt>
      <trkpt lat="59.3550502184" lon="18.014100614187">
        <ele>20.6</ele>
        <time>2019-08-19T07:59:36Z</time>
      </trkpt>
      <trkpt lat="59.355215090373" lon="18.013747233283">
        <ele>20.6</ele>
        <time>2019-08-19T07:59:40Z</time>
      </trkpt>
      <trkpt lat="59.355354649008" lon="18.012834360554">
        <ele>20</ele>
        <time>2019-08-19T07:59:47Z</time>
      </trkpt>
      <trkpt lat="59.355638711599" lon="18.011805901424">
        <ele>19.8</ele>
        <time>2019-08-19T07:59:55Z</time>
      </trkpt>
      <trkpt lat="59.355740467865" lon="18.011490658165">
        <ele>20</ele>
        <time>2019-08-19T07:59:59Z</time>
      </trkpt>
      <trkpt lat="59.355640136522" lon="18.011522677023">
        <ele>20.6</ele>
        <time>2019-08-19T08:00:03Z</time>
      </trkpt>
      <trkpt lat="59.355550450192" lon="18.011710515402">
        <ele>21.8</ele>
        <time>2019-08-19T08:00:06Z</time>
      </trkpt>
      <trkpt lat="59.355469481038" lon="18.011934312132">
        <ele>22.8</ele>
        <time>2019-08-19T08:00:09Z</time>
      </trkpt>
      <trkpt lat="59.355378285966" lon="18.012282077163">
        <ele>23.2</ele>
        <time>2019-08-19T08:00:13Z</time>
      </trkpt>
      <trkpt lat="59.355316092268" lon="18.012408727672">
        <ele>23.4</ele>
        <time>2019-08-19T08:00:15Z</time>
      </trkpt>
      <trkpt lat="59.355145604422" lon="18.012471340465">
        <ele>23.6</ele>
        <time>2019-08-19T08:00:18Z</time>
      </trkpt>
      <trkpt lat="59.354846705868" lon="18.012681474698">
        <ele>23.8</ele>
        <time>2019-08-19T08:00:23Z</time>
      </trkpt>
      <trkpt lat="59.35474344086" lon="18.012791026131">
        <ele>23.8</ele>
        <time>2019-08-19T08:00:25Z</time>
      </trkpt>
      <trkpt lat="59.354643109517" lon="18.012842658635">
        <ele>23.6</ele>
        <time>2019-08-19T08:00:27Z</time>
      </trkpt>
      <trkpt lat="59.354539593052" lon="18.012857997512">
        <ele>24</ele>
        <time>2019-08-19T08:00:29Z</time>
      </trkpt>
      <trkpt lat="59.354425347755" lon="18.012767305354">
        <ele>24.6</ele>
        <time>2019-08-19T08:00:34Z</time>
      </trkpt>
      <trkpt lat="59.354408500136" lon="18.012715002298">
        <ele>25</ele>
        <time>2019-08-19T08:00:35Z</time>
      </trkpt>
      <trkpt lat="59.354380001676" lon="18.012695137195">
        <ele>25.2</ele>
        <time>2019-08-19T08:00:36Z</time>
      </trkpt>
      <trkpt lat="59.354167185235" lon="18.012666890192">
        <ele>26.2</ele>
        <time>2019-08-19T08:00:39Z</time>
      </trkpt>
      <trkpt lat="59.354108344297" lon="18.012665800545">
        <ele>26.4</ele>
        <time>2019-08-19T08:00:40Z</time>
      </trkpt>
      <trkpt lat="59.353999714873" lon="18.012616347335">
        <ele>26.8</ele>
        <time>2019-08-19T08:00:43Z</time>
      </trkpt>
      <trkpt lat="59.353919416271" lon="18.012496234708">
        <ele>27</ele>
        <time>2019-08-19T08:00:45Z</time>
      </trkpt>
      <trkpt lat="59.353892510372" lon="18.012418031581">
        <ele>27.2</ele>
        <time>2019-08-19T08:00:46Z</time>
      </trkpt>
      <trkpt lat="59.353808607553" lon="18.012285765199">
        <ele>27.4</ele>
        <time>2019-08-19T08:00:48Z</time>
      </trkpt>
      <trkpt lat="59.353725375286" lon="18.012077558803">
        <ele>28.2</ele>
        <time>2019-08-19T08:00:51Z</time>
      </trkpt>
      <trkpt lat="59.353752867918" lon="18.011957446176">
        <ele>29</ele>
        <time>2019-08-19T08:00:53Z</time>
      </trkpt>
      <trkpt lat="59.353778851808" lon="18.011921404006">
        <ele>29.4</ele>
        <time>2019-08-19T08:00:54Z</time>
      </trkpt>
      <trkpt lat="59.353815313073" lon="18.011817384627">
        <ele>30</ele>
        <time>2019-08-19T08:00:56Z</time>
      </trkpt>
      <trkpt lat="59.35380550625" lon="18.011668857359">
        <ele>30.6</ele>
        <time>2019-08-19T08:00:58Z</time>
      </trkpt>
      <trkpt lat="59.353765943682" lon="18.011443216611">
        <ele>31.6</ele>
        <time>2019-08-19T08:01:02Z</time>
      </trkpt>
      <trkpt lat="59.353522784763" lon="18.010981876835">
        <ele>32.8</ele>
        <time>2019-08-19T08:01:10Z</time>
      </trkpt>
      <trkpt lat="59.35347274482" lon="18.011139708012">
        <ele>33</ele>
        <time>2019-08-19T08:01:13Z</time>
      </trkpt>
      <trkpt lat="59.353432176424" lon="18.011298712655">
        <ele>33</ele>
        <time>2019-08-19T08:01:15Z</time>
      </trkpt>
      <trkpt lat="59.353363361025" lon="18.011422764775">
        <ele>33</ele>
        <time>2019-08-19T08:01:17Z</time>
      </trkpt>
      <trkpt lat="59.353261101845" lon="18.011473223813">
        <ele>32.8</ele>
        <time>2019-08-19T08:01:19Z</time>
      </trkpt>
      <trkpt lat="59.352855920799" lon="18.011371299909">
        <ele>32.8</ele>
        <time>2019-08-19T08:01:26Z</time>
      </trkpt>
      <trkpt lat="59.352309756195" lon="18.011209613058">
        <ele>32</ele>
        <time>2019-08-19T08:01:35Z</time>
      </trkpt>
      <trkpt lat="59.35193382798" lon="18.011146832627">
        <ele>33.4</ele>
        <time>2019-08-19T08:01:42Z</time>
      </trkpt>
      <trkpt lat="59.351884123313" lon="18.011147167903">
        <ele>34.2</ele>
        <time>2019-08-19T08:01:43Z</time>
      </trkpt>
      <trkpt lat="59.351827042574" lon="18.011147084084">
        <ele>34.8</ele>
        <time>2019-08-19T08:01:44Z</time>
      </trkpt>
      <trkpt lat="59.351711456173" lon="18.011133253949">
        <ele>35</ele>
        <time>2019-08-19T08:01:46Z</time>
      </trkpt>
      <trkpt lat="59.351598384342" lon="18.011061672523">
        <ele>34.8</ele>
        <time>2019-08-19T08:01:48Z</time>
      </trkpt>
      <trkpt lat="59.351473326394" lon="18.011057146297">
        <ele>34</ele>
        <time>2019-08-19T08:01:50Z</time>
      </trkpt>
      <trkpt lat="59.351344328953" lon="18.011111461009">
        <ele>33</ele>
        <time>2019-08-19T08:01:52Z</time>
      </trkpt>
      <trkpt lat="59.351094296876" lon="18.011283038502">
        <ele>33.2</ele>
        <time>2019-08-19T08:01:56Z</time>
      </trkpt>
      <trkpt lat="59.350762708912" lon="18.011673299766">
        <ele>33</ele>
        <time>2019-08-19T08:02:02Z</time>
      </trkpt>
      <trkpt lat="59.350631448358" lon="18.011800201732">
        <ele>32</ele>
        <time>2019-08-19T08:02:04Z</time>
      </trkpt>
      <trkpt lat="59.350488620782" lon="18.011922409834">
        <ele>30.8</ele>
        <time>2019-08-19T08:02:06Z</time>
      </trkpt>
      <trkpt lat="59.350350570889" lon="18.012038582968">
        <ele>30</ele>
        <time>2019-08-19T08:02:08Z</time>
      </trkpt>
      <trkpt lat="59.350288209553" lon="18.012080995382">
        <ele>29.6</ele>
        <time>2019-08-19T08:02:09Z</time>
      </trkpt>
      <trkpt lat="59.350214281195" lon="18.012096837173">
        <ele>29.4</ele>
        <time>2019-08-19T08:02:10Z</time>
      </trkpt>
      <trkpt lat="59.349969445896" lon="18.012036906588">
        <ele>28.6</ele>
        <time>2019-08-19T08:02:13Z</time>
      </trkpt>
      <trkpt lat="59.349884118154" lon="18.011977395098">
        <ele>28</ele>
        <time>2019-08-19T08:02:14Z</time>
      </trkpt>
      <trkpt lat="59.349802478448" lon="18.011904891663">
        <ele>27.4</ele>
        <time>2019-08-19T08:02:15Z</time>
      </trkpt>
      <trkpt lat="59.349725616425" lon="18.011815540609">
        <ele>26.8</ele>
        <time>2019-08-19T08:02:16Z</time>
      </trkpt>
      <trkpt lat="59.34965562756" lon="18.011713532886">
        <ele>26.4</ele>
        <time>2019-08-19T08:02:17Z</time>
      </trkpt>
      <trkpt lat="59.349540208797" lon="18.011508930707">
        <ele>25.8</ele>
        <time>2019-08-19T08:02:19Z</time>
      </trkpt>
      <trkpt lat="59.349238376578" lon="18.010957736963">
        <ele>27.4</ele>
        <time>2019-08-19T08:02:25Z</time>
      </trkpt>
      <trkpt lat="59.349106194015" lon="18.010640984962">
        <ele>27.4</ele>
        <time>2019-08-19T08:02:28Z</time>
      </trkpt>
      <trkpt lat="59.349006533224" lon="18.010431940376">
        <ele>27</ele>
        <time>2019-08-19T08:02:30Z</time>
      </trkpt>
      <trkpt lat="59.348790028747" lon="18.009563156441">
        <ele>26.6</ele>
        <time>2019-08-19T08:02:37Z</time>
      </trkpt>
      <trkpt lat="59.348782820313" lon="18.009321506264">
        <ele>26.4</ele>
        <time>2019-08-19T08:02:39Z</time>
      </trkpt>
      <trkpt lat="59.348814336257" lon="18.009094859688">
        <ele>26</ele>
        <time>2019-08-19T08:02:41Z</time>
      </trkpt>
      <trkpt lat="59.3488057029" lon="18.008852036045">
        <ele>25.2</ele>
        <time>2019-08-19T08:02:43Z</time>
      </trkpt>
      <trkpt lat="59.348750298541" lon="18.008663694752">
        <ele>24.2</ele>
        <time>2019-08-19T08:02:45Z</time>
      </trkpt>
      <trkpt lat="59.348650386293" lon="18.008525225764">
        <ele>23.2</ele>
        <time>2019-08-19T08:02:47Z</time>
      </trkpt>
      <trkpt lat="59.34861459558" lon="18.008458757297">
        <ele>22.8</ele>
        <time>2019-08-19T08:02:48Z</time>
      </trkpt>
      <trkpt lat="59.348524490155" lon="18.00839647978">
        <ele>22.2</ele>
        <time>2019-08-19T08:02:51Z</time>
      </trkpt>
      <trkpt lat="59.348278146114" lon="18.008893107355">
        <ele>22</ele>
        <time>2019-08-19T08:02:57Z</time>
      </trkpt>
      <trkpt lat="59.348105059879" lon="18.009075665137">
        <ele>22</ele>
        <time>2019-08-19T08:03:00Z</time>
      </trkpt>
      <trkpt lat="59.347808592076" lon="18.009236262341">
        <ele>22</ele>
        <time>2019-08-19T08:03:04Z</time>
      </trkpt>
      <trkpt lat="59.347643803922" lon="18.00924221349">
        <ele>21.8</ele>
        <time>2019-08-19T08:03:06Z</time>
      </trkpt>
      <trkpt lat="59.347232168813" lon="18.009061835002">
        <ele>20.6</ele>
        <time>2019-08-19T08:03:11Z</time>
      </trkpt>
      <trkpt lat="59.346919104848" lon="18.008803421025">
        <ele>19.6</ele>
        <time>2019-08-19T08:03:15Z</time>
      </trkpt>
      <trkpt lat="59.34641602321" lon="18.008389103708">
        <ele>19.4</ele>
        <time>2019-08-19T08:03:22Z</time>
      </trkpt>
      <trkpt lat="59.34620144657" lon="18.008225321382">
        <ele>18.6</ele>
        <time>2019-08-19T08:03:25Z</time>
      </trkpt>
      <trkpt lat="59.345925095327" lon="18.008003284851">
        <ele>17.4</ele>
        <time>2019-08-19T08:03:29Z</time>
      </trkpt>
      <trkpt lat="59.345407177726" lon="18.007569689164">
        <ele>17.2</ele>
        <time>2019-08-19T08:03:37Z</time>
      </trkpt>
      <trkpt lat="59.345210454533" lon="18.007417725317">
        <ele>17.4</ele>
        <time>2019-08-19T08:03:41Z</time>
      </trkpt>
      <trkpt lat="59.345053377727" lon="18.007308090065">
        <ele>17.4</ele>
        <time>2019-08-19T08:03:44Z</time>
      </trkpt>
      <trkpt lat="59.344778283769" lon="18.007232317689">
        <ele>16.6</ele>
        <time>2019-08-19T08:03:50Z</time>
      </trkpt>
      <trkpt lat="59.344676611322" lon="18.007251344602">
        <ele>16.6</ele>
        <time>2019-08-19T08:03:52Z</time>
      </trkpt>
      <trkpt lat="59.344511739349" lon="18.007331894661">
        <ele>16.4</ele>
        <time>2019-08-19T08:03:55Z</time>
      </trkpt>
      <trkpt lat="59.344390704713" lon="18.007348658461">
        <ele>16</ele>
        <time>2019-08-19T08:03:57Z</time>
      </trkpt>
      <trkpt lat="59.34427444776" lon="18.00739232816">
        <ele>15.8</ele>
        <time>2019-08-19T08:03:59Z</time>
      </trkpt>
      <trkpt lat="59.343788549017" lon="18.007893314323">
        <ele>15.4</ele>
        <time>2019-08-19T08:04:08Z</time>
      </trkpt>
      <trkpt lat="59.343662485241" lon="18.008090456611">
        <ele>15.2</ele>
        <time>2019-08-19T08:04:11Z</time>
      </trkpt>
      <trkpt lat="59.343559136414" lon="18.008298076274">
        <ele>15</ele>
        <time>2019-08-19T08:04:14Z</time>
      </trkpt>
      <trkpt lat="59.343254705806" lon="18.009306251206">
        <ele>16.4</ele>
        <time>2019-08-19T08:04:27Z</time>
      </trkpt>
      <trkpt lat="59.343235427436" lon="18.009373222587">
        <ele>16.8</ele>
        <time>2019-08-19T08:04:28Z</time>
      </trkpt>
      <trkpt lat="59.343172060272" lon="18.009433656086">
        <ele>17.4</ele>
        <time>2019-08-19T08:04:30Z</time>
      </trkpt>
      <trkpt lat="59.342613825732" lon="18.00942996805">
        <ele>18</ele>
        <time>2019-08-19T08:04:42Z</time>
      </trkpt>
      <trkpt lat="59.342500250987" lon="18.009460059071">
        <ele>18.6</ele>
        <time>2019-08-19T08:04:45Z</time>
      </trkpt>
      <trkpt lat="59.342290284392" lon="18.009672288779">
        <ele>19.6</ele>
        <time>2019-08-19T08:04:52Z</time>
      </trkpt>
      <trkpt lat="59.342122311116" lon="18.010008654426">
        <ele>19.6</ele>
        <time>2019-08-19T08:04:55Z</time>
      </trkpt>
      <trkpt lat="59.342049975319" lon="18.01013991498">
        <ele>19.4</ele>
        <time>2019-08-19T08:04:57Z</time>
      </trkpt>
      <trkpt lat="59.341967162147" lon="18.010255752838">
        <ele>19.4</ele>
        <time>2019-08-19T08:04:59Z</time>
      </trkpt>
      <trkpt lat="59.341512527891" lon="18.010839971268">
        <ele>19.6</ele>
        <time>2019-08-19T08:05:10Z</time>
      </trkpt>
      <trkpt lat="59.341259562149" lon="18.011482946817">
        <ele>20</ele>
        <time>2019-08-19T08:05:18Z</time>
      </trkpt>
      <trkpt lat="59.341125200292" lon="18.012573012912">
        <ele>20</ele>
        <time>2019-08-19T08:05:29Z</time>
      </trkpt>
      <trkpt lat="59.341023779302" lon="18.012814830727">
        <ele>20.4</ele>
        <time>2019-08-19T08:05:33Z</time>
      </trkpt>
      <trkpt lat="59.340919257009" lon="18.012874509855">
        <ele>20.4</ele>
        <time>2019-08-19T08:05:35Z</time>
      </trkpt>
      <trkpt lat="59.340813728888" lon="18.012852381639">
        <ele>20.2</ele>
        <time>2019-08-19T08:05:37Z</time>
      </trkpt>
      <trkpt lat="59.340680959592" lon="18.01279697728">
        <ele>21.2</ele>
        <time>2019-08-19T08:05:40Z</time>
      </trkpt>
      <trkpt lat="59.340383066866" lon="18.012797731651">
        <ele>20.6</ele>
        <time>2019-08-19T08:05:49Z</time>
      </trkpt>
      <trkpt lat="59.340316346942" lon="18.012856237313">
        <ele>20.6</ele>
        <time>2019-08-19T08:05:51Z</time>
      </trkpt>
      <trkpt lat="59.340281226781" lon="18.012992024093">
        <ele>20.4</ele>
        <time>2019-08-19T08:05:53Z</time>
      </trkpt>
      <trkpt lat="59.34026287042" lon="18.013272817743">
        <ele>20.2</ele>
        <time>2019-08-19T08:05:56Z</time>
      </trkpt>
      <trkpt lat="59.340247783" lon="18.013393349465">
        <ele>20</ele>
        <time>2019-08-19T08:05:57Z</time>
      </trkpt>
      <trkpt lat="59.340233282313" lon="18.013514719377">
        <ele>20</ele>
        <time>2019-08-19T08:05:58Z</time>
      </trkpt>
      <trkpt lat="59.340005126995" lon="18.014319549415">
        <ele>19.4</ele>
        <time>2019-08-19T08:06:04Z</time>
      </trkpt>
      <trkpt lat="59.339780492075" lon="18.014711654697">
        <ele>19.2</ele>
        <time>2019-08-19T08:06:08Z</time>
      </trkpt>
      <trkpt lat="59.339442533867" lon="18.015163103831">
        <ele>20</ele>
        <time>2019-08-19T08:06:15Z</time>
      </trkpt>
      <trkpt lat="59.339352260804" lon="18.01524449208">
        <ele>21.2</ele>
        <time>2019-08-19T08:06:17Z</time>
      </trkpt>
      <trkpt lat="59.339299371015" lon="18.015154135198">
        <ele>22.4</ele>
        <time>2019-08-19T08:06:19Z</time>
      </trkpt>
      <trkpt lat="59.339285121785" lon="18.015094623708">
        <ele>23</ele>
        <time>2019-08-19T08:06:20Z</time>
      </trkpt>
      <trkpt lat="59.339272297478" lon="18.015030837449">
        <ele>23.4</ele>
        <time>2019-08-19T08:06:21Z</time>
      </trkpt>
      <trkpt lat="59.339267435976" lon="18.014841406509">
        <ele>25</ele>
        <time>2019-08-19T08:06:24Z</time>
      </trkpt>
      <trkpt lat="59.339191328324" lon="18.014564887628">
        <ele>26</ele>
        <time>2019-08-19T08:06:29Z</time>
      </trkpt>
      <trkpt lat="59.339053781345" lon="18.014257020441">
        <ele>27.2</ele>
        <time>2019-08-19T08:06:35Z</time>
      </trkpt>
      <trkpt lat="59.338881952395" lon="18.013849995377">
        <ele>28.2</ele>
        <time>2019-08-19T08:06:42Z</time>
      </trkpt>
      <trkpt lat="59.338712051282" lon="18.013458895923">
        <ele>29.4</ele>
        <time>2019-08-19T08:06:48Z</time>
      </trkpt>
      <trkpt lat="59.338629573386" lon="18.013031502842">
        <ele>31</ele>
        <time>2019-08-19T08:06:54Z</time>
      </trkpt>
      <trkpt lat="59.338618593097" lon="18.012936368277">
        <ele>32</ele>
        <time>2019-08-19T08:06:55Z</time>
      </trkpt>
      <trkpt lat="59.338611300844" lon="18.012761270386">
        <ele>33.4</ele>
        <time>2019-08-19T08:06:57Z</time>
      </trkpt>
      <trkpt lat="59.338560757987" lon="18.012611821109">
        <ele>34</ele>
        <time>2019-08-19T08:07:00Z</time>
      </trkpt>
      <trkpt lat="59.338009228967" lon="18.012674769178">
        <ele>34.4</ele>
        <time>2019-08-19T08:07:17Z</time>
      </trkpt>
      <trkpt lat="59.337890205987" lon="18.012764371689">
        <ele>34.6</ele>
        <time>2019-08-19T08:07:20Z</time>
      </trkpt>
      <trkpt lat="59.337680490849" lon="18.012830923975">
        <ele>34.6</ele>
        <time>2019-08-19T08:07:24Z</time>
      </trkpt>
      <trkpt lat="59.337586278293" lon="18.012898817365">
        <ele>34.8</ele>
        <time>2019-08-19T08:07:26Z</time>
      </trkpt>
      <trkpt lat="59.337495586135" lon="18.012962687443">
        <ele>35</ele>
        <time>2019-08-19T08:07:28Z</time>
      </trkpt>
      <trkpt lat="59.337396512077" lon="18.013042650769">
        <ele>35.2</ele>
        <time>2019-08-19T08:07:30Z</time>
      </trkpt>
      <trkpt lat="59.33711881973" lon="18.013239625419">
        <ele>35.4</ele>
        <time>2019-08-19T08:07:35Z</time>
      </trkpt>
      <trkpt lat="59.337075066212" lon="18.013285558231">
        <ele>35.8</ele>
        <time>2019-08-19T08:07:36Z</time>
      </trkpt>
      <trkpt lat="59.337033994902" lon="18.013345237359">
        <ele>36</ele>
        <time>2019-08-19T08:07:37Z</time>
      </trkpt>
      <trkpt lat="59.336876331363" lon="18.01348094032">
        <ele>35.4</ele>
        <time>2019-08-19T08:07:40Z</time>
      </trkpt>
      <trkpt lat="59.336795529847" lon="18.013627958846">
        <ele>34.6</ele>
        <time>2019-08-19T08:07:42Z</time>
      </trkpt>
      <trkpt lat="59.336654043375" lon="18.01389584437">
        <ele>33.6</ele>
        <time>2019-08-19T08:07:45Z</time>
      </trkpt>
      <trkpt lat="59.336603835794" lon="18.014114109046">
        <ele>32.6</ele>
        <time>2019-08-19T08:07:47Z</time>
      </trkpt>
      <trkpt lat="59.336545916865" lon="18.014206980498">
        <ele>32.2</ele>
        <time>2019-08-19T08:07:48Z</time>
      </trkpt>
      <trkpt lat="59.336457990734" lon="18.014381240199">
        <ele>31</ele>
        <time>2019-08-19T08:07:50Z</time>
      </trkpt>
      <trkpt lat="59.336261602817" lon="18.01464853899">
        <ele>30</ele>
        <time>2019-08-19T08:07:54Z</time>
      </trkpt>
      <trkpt lat="59.336152219022" lon="18.014731855076">
        <ele>30.4</ele>
        <time>2019-08-19T08:07:57Z</time>
      </trkpt>
      <trkpt lat="59.335887770077" lon="18.014300019588">
        <ele>29.2</ele>
        <time>2019-08-19T08:08:05Z</time>
      </trkpt>
      <trkpt lat="59.335846531129" lon="18.014218882796">
        <ele>28.8</ele>
        <time>2019-08-19T08:08:06Z</time>
      </trkpt>
      <trkpt lat="59.335761287206" lon="18.014067254225">
        <ele>27.6</ele>
        <time>2019-08-19T08:08:08Z</time>
      </trkpt>
      <trkpt lat="59.335721557" lon="18.013984021958">
        <ele>27</ele>
        <time>2019-08-19T08:08:09Z</time>
      </trkpt>
      <trkpt lat="59.335667158469" lon="18.013915793292">
        <ele>26.2</ele>
        <time>2019-08-19T08:08:10Z</time>
      </trkpt>
      <trkpt lat="59.33555727176" lon="18.013758213572">
        <ele>24.6</ele>
        <time>2019-08-19T08:08:12Z</time>
      </trkpt>
      <trkpt lat="59.33545082163" lon="18.013639861144">
        <ele>23.2</ele>
        <time>2019-08-19T08:08:14Z</time>
      </trkpt>
      <trkpt lat="59.335349735916" lon="18.013398294786">
        <ele>23</ele>
        <time>2019-08-19T08:08:20Z</time>
      </trkpt>
    </trkseg>
  </trk>
</gpx>